Time;durP1;ratioP1;P1;durP2;ratioP2;P2;SDS_P1;SDS_P2;PMS_P1;PMS_P2;Temp;Humidity;BMP_temperature;BMP_pressure;BME280_temperature;BME280_humidity;BME280_pressure;Samples;Min_cycle;Max_cycle;Signal;HPM_P1;HPM_P2
2021/03/15 00:02:02;;;;;;;26.85;17.10;;;8.10;77.60;;;;;;5046631;28;20048;-60
2021/03/15 00:04:28;;;;;;;26.02;16.77;;;8.10;77.80;;;;;;5046583;28;20024;-60
2021/03/15 00:06:54;;;;;;;24.15;16.90;;;8.10;77.70;;;;;;5044293;28;20112;-60
2021/03/15 00:09:19;;;;;;;24.20;15.40;;;8.00;77.50;;;;;;5045279;28;20033;-60
2021/03/15 00:11:45;;;;;;;26.90;17.05;;;8.00;77.50;;;;;;5046175;28;20021;-60
2021/03/15 00:14:11;;;;;;;24.13;16.38;;;8.00;77.40;;;;;;5046754;28;20021;-60
2021/03/15 00:16:36;;;;;;;27.08;17.67;;;7.90;77.60;;;;;;5044841;28;20021;-60
2021/03/15 00:19:02;;;;;;;29.48;17.35;;;7.90;77.70;;;;;;5046473;28;20068;-60
2021/03/15 00:21:27;;;;;;;26.80;17.25;;;7.90;77.90;;;;;;5046205;28;20432;-59
2021/03/15 00:23:53;;;;;;;26.05;17.33;;;7.90;78.10;;;;;;5044675;28;20037;-58
2021/03/15 00:26:19;;;;;;;27.85;17.00;;;7.90;77.90;;;;;;5046690;28;20017;-60
2021/03/15 00:28:44;;;;;;;28.08;17.15;;;7.90;77.90;;;;;;5045155;28;20028;-59
2021/03/15 00:31:10;;;;;;;29.35;18.83;;;7.90;77.70;;;;;;5044443;28;20025;-60
2021/03/15 00:33:36;;;;;;;31.63;17.98;;;7.90;78.00;;;;;;5046523;28;20063;-60
2021/03/15 00:36:01;;;;;;;27.70;17.40;;;7.90;77.90;;;;;;5046198;28;20021;-60
2021/03/15 00:38:27;;;;;;;30.10;19.55;;;7.90;77.90;;;;;;5045926;28;20025;-60
2021/03/15 00:40:52;;;;;;;27.10;16.98;;;7.90;77.70;;;;;;5044551;28;20108;-60
2021/03/15 00:43:18;;;;;;;37.00;19.20;;;7.90;77.50;;;;;;5044420;28;20029;-60
2021/03/15 00:45:44;;;;;;;28.83;18.42;;;7.90;77.50;;;;;;5045737;28;20092;-60
2021/03/15 00:48:09;;;;;;;28.73;17.95;;;7.80;77.60;;;;;;5046231;28;20033;-60
2021/03/15 00:50:42;;;;;;;27.13;18.38;;;7.80;77.70;;;;;;5044392;28;20452;-60
2021/03/15 00:53:08;;;;;;;29.88;20.08;;;7.80;77.80;;;;;;5046149;28;20503;-60
2021/03/15 00:55:34;;;;;;;28.67;18.20;;;7.90;78.00;;;;;;5043806;28;20163;-59
2021/03/15 00:58:00;;;;;;;29.17;20.00;;;7.90;78.00;;;;;;5046398;28;20045;-59
2021/03/15 01:00:29;;;;;;;27.55;19.40;;;7.90;77.90;;;;;;5044871;28;20049;-60
2021/03/15 01:02:55;;;;;;;29.98;19.58;;;8.00;77.80;;;;;;5046048;28;20545;-60
2021/03/15 01:05:23;;;;;;;28.30;18.65;;;8.00;77.80;;;;;;5044420;28;20018;-60
2021/03/15 01:07:50;;;;;;;29.13;19.67;;;8.00;77.80;;;;;;5044483;28;20032;-60
2021/03/15 01:10:18;;;;;;;28.50;18.20;;;8.00;77.80;;;;;;5045994;28;20024;-60
2021/03/15 01:12:44;;;;;;;31.60;20.15;;;8.00;77.60;;;;;;5044532;28;20032;-60
2021/03/15 01:15:12;;;;;;;32.80;20.60;;;8.10;77.70;;;;;;5044336;28;20449;-60
2021/03/15 01:17:38;;;;;;;31.83;19.98;;;8.10;77.60;;;;;;5046065;28;20049;-60
2021/03/15 01:20:05;;;;;;;30.00;20.35;;;8.10;77.40;;;;;;5044439;28;20021;-60
2021/03/15 01:22:31;;;;;;;31.45;20.50;;;8.10;77.40;;;;;;5043246;28;20365;-60
2021/03/15 01:24:57;;;;;;;32.10;21.00;;;8.10;77.40;;;;;;5046363;28;20033;-60
2021/03/15 01:27:23;;;;;;;34.72;20.95;;;8.10;77.40;;;;;;5041892;28;20532;-60
2021/03/15 01:29:48;;;;;;;32.25;20.23;;;8.10;77.30;;;;;;5044771;28;20040;-60
2021/03/15 01:32:14;;;;;;;28.95;18.30;;;8.10;77.20;;;;;;5045361;28;20045;-59
2021/03/15 01:34:40;;;;;;;29.05;19.52;;;8.10;77.00;;;;;;5045327;28;20032;-60
2021/03/15 01:37:05;;;;;;;30.30;19.77;;;8.10;77.00;;;;;;5044191;28;20017;-60
2021/03/15 01:39:31;;;;;;;27.45;19.05;;;8.10;77.00;;;;;;5043708;28;20043;-60
2021/03/15 01:41:58;;;;;;;28.25;19.02;;;8.10;77.20;;;;;;5044278;28;20017;-59
2021/03/15 01:44:24;;;;;;;30.25;19.42;;;8.10;77.00;;;;;;5044022;28;20109;-60
2021/03/15 01:46:50;;;;;;;27.27;18.42;;;8.10;77.00;;;;;;5044010;28;20535;-61
2021/03/15 01:49:15;;;;;;;30.23;19.52;;;8.10;77.20;;;;;;5045215;28;20048;-60
2021/03/15 01:51:41;;;;;;;29.58;18.83;;;8.10;77.10;;;;;;5043508;28;20045;-61
2021/03/15 01:54:08;;;;;;;29.30;19.38;;;8.10;77.00;;;;;;5043975;28;20029;-61
2021/03/15 01:56:36;;;;;;;26.25;18.13;;;8.10;76.90;;;;;;5043045;28;20025;-61
2021/03/15 01:59:02;;;;;;;30.92;20.38;;;8.10;76.80;;;;;;5043325;28;20025;-59
2021/03/15 02:01:28;;;;;;;27.17;17.85;;;8.10;76.90;;;;;;5041462;28;20171;-60
2021/03/15 02:03:54;;;;;;;29.35;19.15;;;8.10;76.80;;;;;;5042910;28;21057;-60
2021/03/15 02:06:20;;;;;;;26.80;19.13;;;8.10;76.70;;;;;;5041930;28;20032;-60
2021/03/15 02:08:46;;;;;;;26.25;17.77;;;8.10;76.70;;;;;;5043908;28;20025;-60
2021/03/15 02:11:53;;;;;;;30.10;19.52;;;8.10;76.60;;;;;;5043155;28;20349;-61
2021/03/15 02:14:22;;;;;;;29.63;19.67;;;8.10;76.50;;;;;;5013032;28;20029;-61
2021/03/15 02:16:53;;;;;;;28.15;19.45;;;8.10;76.80;;;;;;5043972;28;20021;-60
2021/03/15 02:19:31;;;;;;;28.90;19.00;;;8.10;76.80;;;;;;5042681;28;20021;-60
2021/03/15 02:22:32;;;;;;;30.85;19.45;;;8.10;76.80;;;;;;5042760;28;20045;-61
2021/03/15 02:25:22;;;;;;;28.77;19.30;;;8.10;76.60;;;;;;5044512;28;20025;-60
2021/03/15 02:28:09;;;;;;;28.75;19.52;;;8.10;76.70;;;;;;5042929;28;20021;-61
2021/03/15 02:30:43;;;;;;;26.15;18.45;;;8.00;76.50;;;;;;5044541;28;20025;-61
2021/03/15 02:33:29;;;;;;;32.55;20.60;;;8.10;76.60;;;;;;5041693;28;20020;-60
2021/03/15 02:35:57;;;;;;;27.42;19.10;;;8.10;76.60;;;;;;5033369;28;20128;-60
2021/03/15 02:38:25;;;;;;;28.45;19.10;;;8.00;76.70;;;;;;5042801;28;20029;-60
2021/03/15 02:40:56;;;;;;;25.60;17.98;;;8.10;76.50;;;;;;5042904;28;20036;-60
2021/03/15 02:43:26;;;;;;;29.65;19.10;;;8.00;76.40;;;;;;5042957;28;20465;-61
2021/03/15 02:46:14;;;;;;;27.95;17.73;;;8.00;76.40;;;;;;5043041;28;20021;-60
2021/03/15 02:48:42;;;;;;;26.65;18.17;;;7.90;76.30;;;;;;5044506;28;20032;-59
2021/03/15 02:51:10;;;;;;;27.90;18.15;;;7.90;76.50;;;;;;5043414;28;20018;-59
2021/03/15 02:53:37;;;;;;;29.45;18.50;;;7.90;76.70;;;;;;5042123;28;20033;-59
2021/03/15 02:56:12;;;;;;;27.13;17.92;;;7.90;76.80;;;;;;5043871;28;20056;-60
2021/03/15 02:58:40;;;;;;;27.52;18.45;;;7.90;77.00;;;;;;5044429;28;20032;-59
2021/03/15 03:01:07;;;;;;;30.02;19.77;;;7.90;77.20;;;;;;5039948;28;20080;-59
2021/03/15 03:03:35;;;;;;;28.75;19.67;;;7.90;77.00;;;;;;5042444;28;20361;-59
2021/03/15 03:06:01;;;;;;;30.45;20.02;;;7.90;77.20;;;;;;5043054;28;20029;-61
2021/03/15 03:08:30;;;;;;;26.90;17.95;;;7.90;77.30;;;;;;5042024;28;20100;-60
2021/03/15 03:10:56;;;;;;;28.85;18.67;;;7.90;77.20;;;;;;5044116;28;20095;-61
2021/03/15 03:13:25;;;;;;;28.77;19.20;;;8.00;77.20;;;;;;5042458;28;20044;-60
2021/03/15 03:15:51;;;;;;;30.55;19.45;;;8.00;77.40;;;;;;5042692;28;20025;-61
2021/03/15 03:18:20;;;;;;;28.60;19.33;;;8.00;77.30;;;;;;5044389;28;20021;-60
2021/03/15 03:20:51;;;;;;;30.55;18.83;;;8.00;77.40;;;;;;5042708;28;20022;-60
2021/03/15 03:23:18;;;;;;;29.08;17.83;;;8.00;77.20;;;;;;5041754;28;20021;-61
2021/03/15 03:25:44;;;;;;;28.73;19.42;;;8.00;77.40;;;;;;5043441;28;20025;-60
2021/03/15 03:28:11;;;;;;;27.15;18.95;;;8.00;77.30;;;;;;5043159;28;20521;-60
2021/03/15 03:30:40;;;;;;;26.38;18.58;;;8.00;77.30;;;;;;5041728;28;20017;-60
2021/03/15 03:33:08;;;;;;;28.00;19.15;;;8.10;77.60;;;;;;5043804;28;20036;-60
2021/03/15 03:35:35;;;;;;;27.27;18.63;;;8.10;77.50;;;;;;5043365;28;20025;-60
2021/03/15 03:38:02;;;;;;;26.60;18.00;;;8.10;77.50;;;;;;5041779;28;20452;-59
2021/03/15 03:40:28;;;;;;;30.25;19.30;;;8.10;77.70;;;;;;5043014;28;20028;-59
2021/03/15 03:42:54;;;;;;;29.42;19.00;;;8.10;77.70;;;;;;5043468;28;20041;-59
2021/03/15 03:45:21;;;;;;;27.52;18.02;;;8.10;77.70;;;;;;5041638;28;20013;-60
2021/03/15 03:47:47;;;;;;;29.40;18.48;;;8.10;77.60;;;;;;5043221;28;20023;-61
2021/03/15 03:50:17;;;;;;;30.23;19.33;;;8.10;77.70;;;;;;5043384;28;20385;-61
2021/03/15 03:52:47;;;;;;;32.47;19.17;;;8.10;77.70;;;;;;5042138;28;20385;-60
2021/03/15 03:55:15;;;;;;;28.55;18.90;;;8.10;77.70;;;;;;5042239;28;20028;-60
2021/03/15 03:57:43;;;;;;;31.25;19.38;;;8.10;77.90;;;;;;5041721;28;20028;-59
2021/03/15 04:00:13;;;;;;;26.40;17.00;;;8.10;78.00;;;;;;5042270;28;20045;-60
2021/03/15 04:02:48;;;;;;;22.50;14.98;;;8.10;77.00;;;;;;5043639;28;20383;-59
2021/03/15 04:05:31;;;;;;;23.25;16.02;;;8.00;76.10;;;;;;5043784;28;20107;-61
2021/03/15 04:08:01;;;;;;;20.23;13.88;;;7.90;75.90;;;;;;5047387;28;20040;-60
2021/03/15 04:10:30;;;;;;;21.65;13.23;;;7.80;75.80;;;;;;5046296;28;20013;-59
2021/03/15 04:13:02;;;;;;;20.88;13.88;;;7.60;75.50;;;;;;5045226;28;20488;-61
2021/03/15 04:15:29;;;;;;;23.08;14.68;;;7.40;75.20;;;;;;5046059;28;20459;-60
2021/03/15 04:17:55;;;;;;;20.02;12.60;;;7.20;75.20;;;;;;5045375;28;20545;-61
2021/03/15 04:20:42;;;;;;;20.10;11.93;;;7.00;75.20;;;;;;5045217;28;20017;-59
2021/03/15 04:23:14;;;;;;;18.88;12.20;;;6.70;75.10;;;;;;5045664;28;20036;-59
2021/03/15 04:25:42;;;;;;;20.45;13.75;;;6.50;75.70;;;;;;5044889;28;20025;-60
2021/03/15 04:28:09;;;;;;;21.55;13.98;;;6.30;76.10;;;;;;5045921;28;20021;-60
2021/03/15 04:30:37;;;;;;;26.00;14.32;;;6.10;76.90;;;;;;5046938;28;20327;-61
2021/03/15 04:33:05;;;;;;;22.30;14.43;;;6.10;77.70;;;;;;5044013;28;20017;-60
2021/03/15 04:35:32;;;;;;;20.67;13.90;;;6.10;78.10;;;;;;5045501;28;20582;-60
2021/03/15 04:38:00;;;;;;;18.80;12.68;;;6.10;78.20;;;;;;5046475;28;20028;-59
2021/03/15 04:40:27;;;;;;;19.27;12.25;;;6.10;77.90;;;;;;5045182;28;20101;-60
2021/03/15 04:42:59;;;;;;;17.30;11.73;;;6.00;77.60;;;;;;5042403;28;20033;-59
2021/03/15 04:45:29;;;;;;;25.00;15.00;;;5.90;77.60;;;;;;5044912;28;20030;-59
2021/03/15 04:47:59;;;;;;;23.30;14.63;;;5.90;78.40;;;;;;5044611;28;20021;-60
2021/03/15 04:50:25;;;;;;;26.15;16.13;;;5.90;78.90;;;;;;5044872;28;20024;-61
2021/03/15 04:52:52;;;;;;;26.15;15.82;;;5.90;79.20;;;;;;5045173;28;20478;-59
2021/03/15 04:55:18;;;;;;;27.92;15.95;;;6.00;79.40;;;;;;5046018;28;20021;-60
2021/03/15 04:57:44;;;;;;;25.63;16.73;;;6.00;79.10;;;;;;5044552;28;20029;-60
2021/03/15 05:00:13;;;;;;;28.13;15.80;;;6.10;79.10;;;;;;5044989;28;20476;-58
2021/03/15 05:02:42;;;;;;;28.83;17.80;;;6.00;79.20;;;;;;5046003;28;20052;-60
2021/03/15 05:05:09;;;;;;;29.60;17.60;;;6.10;79.70;;;;;;5044367;28;20392;-58
2021/03/15 05:07:37;;;;;;;27.02;17.55;;;6.10;80.10;;;;;;5044572;28;20017;-59
2021/03/15 05:10:04;;;;;;;29.38;18.70;;;6.20;80.50;;;;;;5044130;28;20076;-59
2021/03/15 05:12:31;;;;;;;29.83;17.67;;;6.30;80.60;;;;;;5044880;28;20508;-60
2021/03/15 05:14:58;;;;;;;31.00;19.13;;;6.40;80.70;;;;;;5044682;28;20063;-59
2021/03/15 05:17:24;;;;;;;37.10;19.58;;;6.50;81.00;;;;;;5044014;28;20022;-60
2021/03/15 05:19:51;;;;;;;35.08;21.17;;;6.60;81.10;;;;;;5044993;28;20036;-59
2021/03/15 05:22:17;;;;;;;27.50;17.90;;;6.70;81.10;;;;;;5045792;28;20467;-60
2021/03/15 05:24:44;;;;;;;30.40;17.65;;;6.80;80.60;;;;;;5044103;28;20037;-59
2021/03/15 05:27:10;;;;;;;26.60;16.83;;;6.90;80.30;;;;;;5044695;28;20021;-59
2021/03/15 05:29:39;;;;;;;24.83;17.00;;;6.90;79.70;;;;;;5045875;28;20021;-60
2021/03/15 05:32:06;;;;;;;25.42;15.80;;;6.90;79.60;;;;;;5044587;28;20346;-59
2021/03/15 05:34:33;;;;;;;31.50;20.13;;;6.90;79.50;;;;;;5044401;28;20041;-60
2021/03/15 05:37:01;;;;;;;36.65;22.20;;;7.00;80.00;;;;;;5043385;28;20021;-60
2021/03/15 05:39:27;;;;;;;38.45;22.35;;;7.00;80.40;;;;;;5044940;28;20032;-59
2021/03/15 05:42:06;;;;;;;39.72;21.38;;;7.00;80.20;;;;;;5044936;28;20108;-60
2021/03/15 05:44:57;;;;;;;42.10;25.45;;;7.00;80.00;;;;;;5044774;28;20044;-60
2021/03/15 05:47:45;;;;;;;40.38;25.55;;;7.00;80.80;;;;;;5043735;28;20037;-59
2021/03/15 05:50:25;;;;;;;43.70;25.23;;;7.00;80.40;;;;;;5044403;28;20022;-60
2021/03/15 05:53:36;;;;;;;43.20;26.17;;;7.00;80.00;;;;;;5043402;28;20082;-60
2021/03/15 05:56:29;;;;;;;42.72;26.75;;;6.90;80.10;;;;;;5024040;28;20453;-60
2021/03/15 05:58:55;;;;;;;34.85;20.83;;;6.90;80.40;;;;;;5045072;28;20102;-59
2021/03/15 06:01:36;;;;;;;29.25;18.67;;;6.90;80.40;;;;;;5042855;28;20061;-60
2021/03/15 06:04:39;;;;;;;26.17;15.93;;;7.00;80.40;;;;;;5042888;28;20024;-59
2021/03/15 06:07:08;;;;;;;23.73;15.18;;;7.00;80.00;;;;;;5043194;28;20049;-60
2021/03/15 06:09:43;;;;;;;25.13;15.52;;;7.00;79.70;;;;;;5043620;28;20392;-60
2021/03/15 06:12:22;;;;;;;25.70;15.88;;;7.00;79.60;;;;;;5044008;28;20009;-60
2021/03/15 06:14:49;;;;;;;23.45;15.38;;;7.10;79.50;;;;;;5043880;28;20079;-60
2021/03/15 06:17:16;;;;;;;29.08;17.83;;;7.10;79.50;;;;;;5043121;28;20135;-59
2021/03/15 06:19:42;;;;;;;32.78;19.08;;;7.10;79.90;;;;;;5044709;28;20025;-60
2021/03/15 06:22:10;;;;;;;28.25;17.65;;;7.10;80.10;;;;;;5043523;28;20022;-60
2021/03/15 06:24:37;;;;;;;29.15;16.30;;;7.10;80.10;;;;;;5042994;28;20483;-59
2021/03/15 06:27:04;;;;;;;31.85;18.52;;;7.10;79.50;;;;;;5042425;28;20028;-60
2021/03/15 06:29:30;;;;;;;33.45;19.25;;;7.20;79.60;;;;;;5043423;28;20500;-60
2021/03/15 06:31:58;;;;;;;32.33;18.75;;;7.20;80.20;;;;;;5042524;28;20025;-60
2021/03/15 06:34:26;;;;;;;32.88;19.58;;;7.20;80.50;;;;;;5044499;28;20476;-59
2021/03/15 06:36:52;;;;;;;32.83;19.90;;;7.30;80.90;;;;;;5043017;28;20125;-57
2021/03/15 06:39:19;;;;;;;33.42;19.70;;;7.40;81.00;;;;;;5039096;28;20037;-61
2021/03/15 06:41:46;;;;;;;34.63;20.52;;;7.40;80.90;;;;;;5043593;28;20056;-59
2021/03/15 06:44:11;;;;;;;30.10;18.98;;;7.50;80.70;;;;;;5036040;28;20036;-59
2021/03/15 06:46:41;;;;;;;34.42;20.15;;;7.50;80.30;;;;;;5036760;28;20075;-60
2021/03/15 06:49:06;;;;;;;31.38;18.05;;;7.50;80.10;;;;;;5040282;28;20436;-57
2021/03/15 06:51:34;;;;;;;32.38;19.40;;;7.40;80.00;;;;;;5033664;28;20061;-57
2021/03/15 06:54:00;;;;;;;32.25;19.17;;;7.40;80.00;;;;;;5035868;28;20131;-55
2021/03/15 06:56:25;;;;;;;28.95;18.48;;;7.30;80.20;;;;;;5040188;28;20045;-56
2021/03/15 06:58:52;;;;;;;32.17;18.77;;;7.30;80.70;;;;;;5036859;28;20025;-59
2021/03/15 07:01:23;;;;;;;33.40;19.10;;;7.30;81.10;;;;;;5036608;28;20057;-58
2021/03/15 07:03:52;;;;;;;29.95;17.27;;;7.40;81.00;;;;;;5030474;28;20037;-58
2021/03/15 07:06:19;;;;;;;29.92;16.08;;;7.40;81.10;;;;;;5035633;28;20071;-59
2021/03/15 07:08:47;;;;;;;29.55;18.67;;;7.40;80.70;;;;;;5036949;28;20032;-62
2021/03/15 07:11:31;;;;;;;28.75;16.60;;;7.30;80.50;;;;;;5030099;28;20032;-59
2021/03/15 07:13:57;;;;;;;28.63;16.27;;;7.30;80.40;;;;;;5034782;28;20033;-59
2021/03/15 07:16:31;;;;;;;24.17;15.02;;;7.30;80.00;;;;;;5039855;28;20033;-59
2021/03/15 07:19:02;;;;;;;23.33;14.10;;;7.30;79.90;;;;;;5042703;28;20400;-59
2021/03/15 07:21:32;;;;;;;27.38;15.93;;;7.20;79.20;;;;;;5033615;28;20815;-59
2021/03/15 07:23:58;;;;;;;28.55;17.75;;;7.10;78.80;;;;;;5034147;28;20034;-59
2021/03/15 07:26:31;;;;;;;24.67;15.45;;;7.00;78.90;;;;;;5032158;28;20037;-60
2021/03/15 07:28:58;;;;;;;24.60;14.75;;;6.90;79.10;;;;;;5032484;28;20017;-58
2021/03/15 07:31:25;;;;;;;27.25;15.55;;;6.80;79.40;;;;;;5032051;28;20156;-59
2021/03/15 07:33:56;;;;;;;22.98;14.50;;;6.70;79.60;;;;;;5034040;28;20556;-58
2021/03/15 07:36:58;;;;;;;27.05;15.95;;;6.70;79.70;;;;;;5029815;28;20031;-60
2021/03/15 07:39:25;;;;;;;;;;;6.60;79.60;;;;;;5002169;28;20899;-58
2021/03/15 07:41:53;;;;;;;19.73;13.65;;;6.50;80.10;;;;;;5033839;28;20288;-57
2021/03/15 07:44:43;;;;;;;26.42;15.50;;;6.50;80.10;;;;;;5033926;28;20056;-58
2021/03/15 07:47:08;;;;;;;28.48;15.13;;;6.40;80.00;;;;;;5040736;28;20036;-58
2021/03/15 07:49:38;;;;;;;28.67;16.20;;;6.40;80.50;;;;;;5039111;28;20033;-60
2021/03/15 07:52:11;;;;;;;27.27;15.93;;;6.30;80.70;;;;;;5036237;28;20024;-59
2021/03/15 07:54:43;;;;;;;21.92;14.07;;;6.30;80.90;;;;;;5035871;28;20033;-58
2021/03/15 07:57:15;;;;;;;;;;;6.20;80.90;;;;;;5030199;28;20064;-58
2021/03/15 07:59:42;;;;;;;28.30;14.95;;;6.10;81.30;;;;;;5034403;28;19967;-59
2021/03/15 08:02:18;;;;;;;23.92;14.13;;;6.10;81.40;;;;;;5032366;28;20393;-60
2021/03/15 08:04:44;;;;;;;28.55;14.35;;;6.00;81.60;;;;;;5028055;28;20873;-59
2021/03/15 08:07:12;;;;;;;28.42;14.95;;;6.00;82.10;;;;;;5028683;28;20473;-58
2021/03/15 08:09:38;;;;;;;27.02;15.63;;;6.00;82.20;;;;;;5036153;28;20025;-59
2021/03/15 08:12:08;;;;;;;27.50;16.08;;;6.00;82.00;;;;;;5031922;28;20086;-59
2021/03/15 08:14:36;;;;;;;28.58;14.73;;;6.00;82.20;;;;;;5030309;28;20049;-60
2021/03/15 08:17:03;;;;;;;29.20;15.80;;;6.00;82.30;;;;;;5032971;28;20036;-60
2021/03/15 08:19:34;;;;;;;29.40;15.68;;;6.00;82.20;;;;;;5033773;28;20720;-61
2021/03/15 08:22:03;;;;;;;27.98;13.95;;;6.00;82.20;;;;;;5038900;28;20055;-58
2021/03/15 08:24:32;;;;;;;26.33;14.85;;;6.00;82.10;;;;;;5033915;28;20088;-59
2021/03/15 08:26:59;;;;;;;27.98;15.68;;;5.90;81.70;;;;;;5034379;28;20029;-58
2021/03/15 08:29:24;;;;;;;28.95;15.75;;;5.80;81.80;;;;;;5033737;28;20028;-59
2021/03/15 08:31:53;;;;;;;27.05;14.95;;;5.80;83.10;;;;;;5034351;28;20029;-59
2021/03/15 08:34:20;;;;;;;25.60;15.38;;;5.80;82.60;;;;;;5028404;28;20030;-59
2021/03/15 08:36:46;;;;;;;26.90;15.55;;;5.80;82.60;;;;;;5033166;28;20029;-59
2021/03/15 08:39:27;;;;;;;27.77;16.60;;;5.70;82.60;;;;;;5036357;28;20022;-59
2021/03/15 08:42:13;;;;;;;31.85;17.35;;;5.70;82.80;;;;;;5031811;28;20044;-59
2021/03/15 08:44:46;;;;;;;26.98;16.60;;;5.70;83.20;;;;;;5027430;28;20025;-57
2021/03/15 08:47:13;;;;;;;29.83;16.00;;;5.80;83.60;;;;;;5035980;28;20124;-60
2021/03/15 08:49:42;;;;;;;31.88;17.55;;;5.80;83.50;;;;;;5032156;28;20029;-59
2021/03/15 08:52:35;;;;;;;24.52;14.63;;;5.90;83.70;;;;;;5030848;28;20033;-59
2021/03/15 08:55:00;;;;;;;27.35;15.32;;;5.90;83.30;;;;;;5028552;28;20032;-60
2021/03/15 08:57:35;;;;;;;25.77;15.55;;;5.90;83.30;;;;;;5027873;28;20041;-61
2021/03/15 09:00:38;;;;;;;24.45;15.15;;;5.90;83.40;;;;;;5023041;28;20042;-60
2021/03/15 09:03:04;;;;;;;24.75;14.68;;;5.90;83.40;;;;;;5028820;28;20061;-61
2021/03/15 09:05:30;;;;;;;24.70;15.32;;;5.90;83.30;;;;;;5030923;28;20108;-59
2021/03/15 09:07:56;;;;;;;24.92;15.90;;;5.90;83.30;;;;;;5034540;28;20037;-60
2021/03/15 09:10:30;;;;;;;26.08;15.00;;;6.00;83.40;;;;;;5030687;28;20083;-60
2021/03/15 09:13:18;;;;;;;25.85;16.25;;;5.90;82.80;;;;;;5035054;28;20029;-59
2021/03/15 09:15:52;;;;;;;29.17;16.92;;;5.90;83.00;;;;;;5032717;28;20108;-61
2021/03/15 09:18:41;;;;;;;23.80;14.85;;;5.90;83.10;;;;;;5028422;28;20052;-60
2021/03/15 09:21:28;;;;;;;28.88;15.65;;;5.90;83.20;;;;;;5029509;28;20028;-57
2021/03/15 09:24:01;;;;;;;30.20;17.23;;;5.90;82.90;;;;;;5029331;28;20079;-61
2021/03/15 09:26:29;;;;;;;27.73;16.83;;;5.80;82.90;;;;;;5034465;28;20039;-59
2021/03/15 09:28:57;;;;;;;28.75;16.13;;;5.80;83.20;;;;;;5031951;28;20032;-60
2021/03/15 09:31:23;;;;;;;30.17;17.63;;;5.80;83.50;;;;;;5029849;28;20370;-60
2021/03/15 09:33:49;;;;;;;34.10;18.27;;;5.80;83.90;;;;;;5027543;28;20084;-61
2021/03/15 09:36:28;;;;;;;27.45;16.58;;;5.90;84.30;;;;;;5031151;28;20430;-60
2021/03/15 09:38:55;;;;;;;32.10;17.13;;;6.00;84.40;;;;;;5027241;28;20029;-60
2021/03/15 09:41:23;;;;;;;32.95;18.80;;;6.00;84.40;;;;;;5028307;28;20041;-61
2021/03/15 09:43:52;;;;;;;27.67;15.88;;;6.20;84.30;;;;;;5029581;28;20087;-57
2021/03/15 09:46:25;;;;;;;27.23;16.48;;;6.20;84.10;;;;;;5031958;28;20476;-58
2021/03/15 09:48:50;;;;;;;31.55;17.98;;;6.30;84.00;;;;;;5030939;28;20033;-57
2021/03/15 09:51:25;;;;;;;31.75;17.58;;;6.30;84.10;;;;;;5029882;28;20035;-57
2021/03/15 09:53:51;;;;;;;30.65;17.20;;;6.30;83.80;;;;;;5026299;28;20124;-60
2021/03/15 09:56:16;;;;;;;27.42;16.58;;;6.40;83.70;;;;;;5017094;28;20095;-58
2021/03/15 09:58:42;;;;;;;29.05;16.88;;;6.40;83.40;;;;;;5025630;28;20627;-59
2021/03/15 10:01:11;;;;;;;30.90;17.52;;;6.30;83.20;;;;;;5026054;28;20051;-60
2021/03/15 10:03:37;;;;;;;28.52;16.15;;;6.30;83.20;;;;;;5029164;28;20053;-61
2021/03/15 10:06:03;;;;;;;32.05;18.35;;;6.40;83.50;;;;;;5033924;28;20033;-60
2021/03/15 10:08:29;;;;;;;27.65;16.08;;;6.30;83.40;;;;;;5033089;28;20025;-59
2021/03/15 10:10:57;;;;;;;31.00;17.10;;;6.40;83.60;;;;;;5036277;28;20059;-59
2021/03/15 10:13:23;;;;;;;25.55;16.30;;;6.40;83.80;;;;;;5027676;28;20041;-58
2021/03/15 10:15:48;;;;;;;28.08;16.00;;;6.40;83.90;;;;;;5025505;28;20040;-60
2021/03/15 10:18:19;;;;;;;26.95;18.25;;;6.50;84.00;;;;;;5029127;28;20025;-60
2021/03/15 10:20:44;;;;;;;27.80;16.55;;;6.50;84.00;;;;;;5031449;28;20029;-62
2021/03/15 10:23:22;;;;;;;28.55;16.70;;;6.60;84.00;;;;;;5030097;28;20055;-59
2021/03/15 10:25:57;;;;;;;30.02;17.23;;;6.70;84.00;;;;;;5028828;28;20049;-60
2021/03/15 10:28:24;;;;;;;29.75;15.93;;;6.70;84.10;;;;;;5031250;28;20059;-59
2021/03/15 10:30:51;;;;;;;31.48;17.02;;;6.80;83.80;;;;;;5028355;28;20029;-59
2021/03/15 10:33:20;;;;;;;28.75;17.20;;;6.90;83.80;;;;;;5023644;28;20488;-59
2021/03/15 10:35:47;;;;;;;29.48;17.85;;;6.90;83.50;;;;;;5021385;28;20060;-59
2021/03/15 10:38:13;;;;;;;30.52;18.02;;;7.00;83.50;;;;;;5024843;28;20033;-59
2021/03/15 10:40:40;;;;;;;29.27;17.27;;;7.10;83.40;;;;;;5033222;28;20104;-59
2021/03/15 10:43:06;;;;;;;27.15;16.00;;;7.10;83.10;;;;;;5012407;28;20148;-58
2021/03/15 10:45:32;;;;;;;27.52;17.25;;;7.20;82.70;;;;;;5026929;28;20405;-58
2021/03/15 10:48:03;;;;;;;23.95;14.90;;;7.20;82.40;;;;;;5028185;28;20029;-59
2021/03/15 10:50:37;;;;;;;27.63;15.75;;;7.30;82.50;;;;;;5032726;28;20033;-58
2021/03/15 10:53:30;;;;;;;27.25;16.50;;;7.30;82.30;;;;;;5028606;28;20048;-57
2021/03/15 10:55:56;;;;;;;26.80;17.27;;;7.30;82.10;;;;;;5027859;28;20404;-58
2021/03/15 10:58:21;;;;;;;27.00;17.45;;;7.30;82.30;;;;;;5030563;28;20029;-59
2021/03/15 11:00:50;;;;;;;27.30;16.98;;;7.40;82.60;;;;;;5028401;28;20722;-58
2021/03/15 11:03:22;;;;;;;25.27;16.48;;;7.40;82.40;;;;;;5026330;28;20021;-58
2021/03/15 11:06:01;;;;;;;24.70;16.38;;;7.50;82.30;;;;;;5025871;28;20026;-58
2021/03/15 11:08:27;;;;;;;25.10;16.02;;;7.60;82.50;;;;;;5028530;28;20043;-58
2021/03/15 11:10:53;;;;;;;26.17;16.08;;;7.60;82.90;;;;;;5028255;28;20017;-56
2021/03/15 11:13:21;;;;;;;25.17;16.08;;;7.70;82.70;;;;;;5025837;28;20033;-58
2021/03/15 11:15:47;;;;;;;26.58;15.98;;;7.80;82.10;;;;;;5033437;28;20035;-57
2021/03/15 11:18:25;;;;;;;27.35;16.95;;;7.80;82.30;;;;;;5025909;28;20059;-58
2021/03/15 11:20:55;;;;;;;26.27;16.65;;;7.80;82.00;;;;;;5035283;28;20037;-58
2021/03/15 11:23:31;;;;;;;29.05;17.45;;;7.80;81.50;;;;;;5036022;28;20037;-57
2021/03/15 11:26:01;;;;;;;24.52;15.50;;;7.80;81.50;;;;;;5031666;28;20061;-58
2021/03/15 11:28:32;;;;;;;24.38;15.32;;;7.70;81.60;;;;;;5041255;28;20033;-58
2021/03/15 11:31:00;;;;;;;24.47;15.37;;;7.70;81.90;;;;;;5034739;28;20040;-57
2021/03/15 11:33:28;;;;;;;28.27;18.58;;;7.70;82.20;;;;;;5040368;28;20302;-57
2021/03/15 11:35:54;;;;;;;26.35;17.83;;;7.70;82.60;;;;;;5036039;28;20035;-58
2021/03/15 11:38:24;;;;;;;20.70;14.10;;;7.70;82.50;;;;;;5033670;28;20493;-59
2021/03/15 11:40:51;;;;;;;20.00;13.37;;;7.70;82.40;;;;;;5034367;28;20039;-58
2021/03/15 11:43:17;;;;;;;28.52;15.95;;;7.70;81.60;;;;;;5040019;28;20507;-56
2021/03/15 11:45:43;;;;;;;25.10;16.90;;;7.60;81.30;;;;;;5018354;28;20030;-58
2021/03/15 11:48:09;;;;;;;29.42;17.05;;;7.50;81.80;;;;;;5040511;28;20075;-57
2021/03/15 11:50:37;;;;;;;25.75;16.35;;;7.50;82.80;;;;;;5037910;28;20476;-59
2021/03/15 11:53:04;;;;;;;23.55;15.75;;;7.50;83.20;;;;;;5040604;28;20074;-58
2021/03/15 11:55:30;;;;;;;23.67;16.00;;;7.60;83.40;;;;;;5038202;28;20028;-58
2021/03/15 11:57:56;;;;;;;27.50;17.98;;;7.60;83.30;;;;;;5033940;28;20083;-58
2021/03/15 12:00:22;;;;;;;27.60;18.73;;;7.60;83.30;;;;;;5028544;28;20454;-58
2021/03/15 12:02:50;;;;;;;24.73;16.20;;;7.50;83.20;;;;;;5033664;28;20025;-58
2021/03/15 12:05:17;;;;;;;27.95;17.88;;;7.60;83.40;;;;;;5029549;28;20453;-58
2021/03/15 12:07:43;;;;;;;26.38;17.40;;;7.50;82.90;;;;;;5032703;28;20025;-58
2021/03/15 12:10:11;;;;;;;26.23;18.23;;;7.40;82.60;;;;;;5031207;28;20036;-57
2021/03/15 12:12:37;;;;;;;25.85;16.95;;;7.30;82.70;;;;;;5036169;28;20025;-59
2021/03/15 12:15:06;;;;;;;33.67;17.60;;;7.30;83.40;;;;;;5033403;28;20055;-58
2021/03/15 12:17:32;;;;;;;24.38;15.85;;;7.20;83.90;;;;;;5036199;28;20028;-58
2021/03/15 12:19:59;;;;;;;26.65;16.88;;;7.30;84.50;;;;;;5035422;28;20051;-58
2021/03/15 12:22:25;;;;;;;24.40;17.05;;;7.30;84.20;;;;;;5035366;28;20048;-58
2021/03/15 12:24:51;;;;;;;26.23;16.00;;;7.30;84.30;;;;;;5031967;28;20037;-58
2021/03/15 12:27:17;;;;;;;25.45;15.70;;;7.30;84.70;;;;;;5034786;28;20037;-59
2021/03/15 12:29:42;;;;;;;28.20;17.42;;;7.40;84.50;;;;;;5035503;28;20425;-60
2021/03/15 12:32:08;;;;;;;29.90;18.65;;;7.40;84.00;;;;;;5031344;28;20347;-58
2021/03/15 12:34:34;;;;;;;29.50;17.02;;;7.30;83.50;;;;;;5033968;28;20495;-59
2021/03/15 12:37:01;;;;;;;28.90;17.75;;;7.30;84.00;;;;;;5035848;28;20036;-59
2021/03/15 12:39:27;;;;;;;30.00;17.80;;;7.30;84.30;;;;;;5032515;28;20029;-58
2021/03/15 12:41:52;;;;;;;27.63;17.48;;;7.30;84.50;;;;;;5035510;28;20028;-58
2021/03/15 12:44:18;;;;;;;23.85;16.42;;;7.40;84.70;;;;;;5029931;28;20040;-59
2021/03/15 12:46:44;;;;;;;29.15;16.83;;;7.50;84.70;;;;;;5031455;28;20075;-59
2021/03/15 12:49:10;;;;;;;29.50;16.92;;;7.50;84.40;;;;;;5028687;28;20112;-57
2021/03/15 12:51:35;;;;;;;27.27;17.75;;;7.60;84.30;;;;;;5031223;28;20021;-59